UAE380 OMDB-VHHH
Flight info
| Callsign | UAE380 |
|---|---|
| Flight time | N/A |
| Altitude | 37000 |
| Route | IVURO M677 LALDO B505 NADSO B524 ALPOR M504 TELEM A791 ARIVO/N0489F390 A791 CEA B465 CTG A599 LINSO/K0898S1190 A599 POU R473 SIERA |
| Aircraft | A388/J-SADE2E3FGHIJ3J4J5M1RWXY/LB1D1 |
Departure
| Time | 2026-04-25 02:42 |
|---|---|
| Airport | Dubai International Airport (OMDB) |
Arrival
| Time | N/A |
|---|---|
| Airport | Hong Kong International Airport (VHHH) |
| Time | Latitude | Longitude | Altitude | Speed | Heading |
|---|---|---|---|---|---|
| 2026-04-25 02:27 | 25.24396 | 55.37291 | 39 ft | 0 kts | 211° |
| 2026-04-25 02:35 | 25.24412 | 55.37302 | 39 ft | 4 kts | 211° |
| 2026-04-25 02:35 | 25.24438 | 55.37319 | 37 ft | 4 kts | 210° |
| 2026-04-25 02:35 | 25.24465 | 55.37334 | 36 ft | 4 kts | 204° |
| 2026-04-25 02:35 | 25.24494 | 55.37347 | 36 ft | 4 kts | 199° |
| 2026-04-25 02:36 | 25.24523 | 55.37355 | 37 ft | 4 kts | 193° |
| 2026-04-25 02:36 | 25.24553 | 55.37359 | 36 ft | 4 kts | 175° |
| 2026-04-25 02:36 | 25.24579 | 55.37343 | 36 ft | 4 kts | 138° |
| 2026-04-25 02:36 | 25.24596 | 55.37320 | 35 ft | 4 kts | 123° |
| 2026-04-25 02:37 | 25.24600 | 55.37313 | 34 ft | 0 kts | 122° |
| 2026-04-25 02:39 | 25.24599 | 55.37315 | 37 ft | 1 kts | 122° |
| 2026-04-25 02:39 | 25.24591 | 55.37357 | 38 ft | 8 kts | 69° |
| 2026-04-25 02:39 | 25.24616 | 55.37436 | 39 ft | 15 kts | 75° |
| 2026-04-25 02:39 | 25.24628 | 55.37551 | 41 ft | 15 kts | 90° |
| 2026-04-25 02:40 | 25.24610 | 55.37667 | 43 ft | 15 kts | 111° |
| 2026-04-25 02:40 | 25.24552 | 55.37787 | 46 ft | 19 kts | 109° |
| 2026-04-25 02:40 | 25.24593 | 55.37901 | 47 ft | 17 kts | 43° |
| 2026-04-25 02:40 | 25.24698 | 55.37973 | 47 ft | 19 kts | 30° |
| 2026-04-25 02:41 | 25.24821 | 55.38018 | 46 ft | 22 kts | 329° |
| 2026-04-25 02:41 | 25.24880 | 55.37904 | 44 ft | 33 kts | 301° |
| 2026-04-25 02:41 | 25.25139 | 55.37438 | 33 ft | 107 kts | 301° |
| 2026-04-25 02:41 | 25.25625 | 55.36557 | 27 ft | 157 kts | 301° |
| 2026-04-25 02:42 | 25.26256 | 55.35447 | 173 ft | 175 kts | 302° |
| 2026-04-25 02:42 | 25.26899 | 55.34329 | 637 ft | 175 kts | 301° |
| 2026-04-25 02:42 | 25.27551 | 55.33140 | 796 ft | 190 kts | 300° |
| 2026-04-25 02:42 | 25.28254 | 55.31846 | 903 ft | 202 kts | 301° |
| 2026-04-25 02:43 | 25.29044 | 55.30477 | 1001 ft | 222 kts | 310° |
| 2026-04-25 02:43 | 25.30353 | 55.29536 | 1544 ft | 230 kts | 345° |
| 2026-04-25 02:43 | 25.31787 | 55.29426 | 2223 ft | 229 kts | 1° |
| 2026-04-25 02:43 | 25.32419 | 55.29458 | 2458 ft | 231 kts | 2° |
| 2026-04-25 02:44 | 25.32977 | 55.29487 | 2657 ft | 233 kts | 2° |
| 2026-04-25 02:44 | 25.33669 | 55.29521 | 2954 ft | 234 kts | 1° |
| 2026-04-25 02:44 | 25.35274 | 55.29590 | 3646 ft | 235 kts | 1° |
| 2026-04-25 02:45 | 25.36927 | 55.29646 | 4305 ft | 238 kts | 0° |
| 2026-04-25 02:45 | 25.38594 | 55.29701 | 4950 ft | 242 kts | 4° |
| 2026-04-25 02:45 | 25.38874 | 55.29735 | 5038 ft | 243 kts | 8° |
| 2026-04-25 02:45 | 25.40439 | 55.30482 | 5665 ft | 251 kts | 37° |
| 2026-04-25 02:46 | 25.41640 | 55.31917 | 6184 ft | 263 kts | 50° |
| 2026-04-25 02:46 | 25.42806 | 55.33588 | 6407 ft | 285 kts | 51° |
| 2026-04-25 02:46 | 25.44028 | 55.35365 | 6898 ft | 293 kts | 51° |
| 2026-04-25 02:46 | 25.44323 | 55.35787 | 7039 ft | 293 kts | 51° |
| 2026-04-25 02:47 | 25.45200 | 55.37032 | 7481 ft | 295 kts | 50° |
| 2026-04-25 02:47 | 25.45994 | 55.38142 | 7877 ft | 297 kts | 50° |
| 2026-04-25 02:48 | 25.46556 | 55.38921 | 8130 ft | 298 kts | 50° |
| 2026-04-25 02:48 | 25.47863 | 55.40718 | 8788 ft | 301 kts | 50° |
| 2026-04-25 02:49 | 25.49184 | 55.42535 | 9421 ft | 304 kts | 51° |
| 2026-04-25 02:49 | 25.50493 | 55.44401 | 10035 ft | 307 kts | 51° |
| 2026-04-25 02:49 | 25.51809 | 55.46309 | 10383 ft | 320 kts | 53° |
| 2026-04-25 02:49 | 25.52616 | 55.47901 | 10477 ft | 334 kts | 69° |
| 2026-04-25 02:50 | 25.52750 | 55.48321 | 10513 ft | 337 kts | 73° |
| 2026-04-25 02:50 | 25.53031 | 55.50962 | 10678 ft | 354 kts | 95° |
| 2026-04-25 02:50 | 25.52394 | 55.53608 | 11058 ft | 360 kts | 117° |
| 2026-04-25 02:50 | 25.51036 | 55.55934 | 11626 ft | 361 kts | 128° |
| 2026-04-25 02:51 | 25.49480 | 55.58119 | 12175 ft | 363 kts | 129° |
| 2026-04-25 02:51 | 25.47944 | 55.60364 | 12766 ft | 366 kts | 127° |
| 2026-04-25 02:51 | 25.47655 | 55.60807 | 12888 ft | 367 kts | 127° |
| 2026-04-25 02:52 | 25.47653 | 55.60811 | 12884 ft | 367 kts | 127° |
| 2026-04-25 02:52 | 25.46275 | 55.63022 | 13445 ft | 369 kts | 125° |
| 2026-04-25 02:52 | 25.44860 | 55.65416 | 13980 ft | 373 kts | 124° |
| 2026-04-25 02:53 | 25.43502 | 55.67879 | 14455 ft | 376 kts | 118° |
| 2026-04-25 02:53 | 25.42449 | 55.70541 | 14971 ft | 380 kts | 110° |
| 2026-04-25 02:53 | 25.41742 | 55.73380 | 15471 ft | 383 kts | 103° |
| 2026-04-25 02:53 | 25.41157 | 55.76268 | 15951 ft | 387 kts | 103° |
| 2026-04-25 02:54 | 25.40546 | 55.79182 | 16442 ft | 390 kts | 103° |
| 2026-04-25 02:54 | 25.39921 | 55.82112 | 16926 ft | 393 kts | 103° |
| 2026-04-25 02:54 | 25.39295 | 55.85036 | 17397 ft | 396 kts | 103° |
| 2026-04-25 02:54 | 25.38658 | 55.88012 | 17859 ft | 399 kts | 103° |
| 2026-04-25 02:55 | 25.38014 | 55.91018 | 18305 ft | 403 kts | 103° |
| 2026-04-25 02:55 | 25.37366 | 55.94044 | 18701 ft | 406 kts | 103° |
| 2026-04-25 02:55 | 25.36706 | 55.97128 | 19097 ft | 409 kts | 103° |
| 2026-04-25 02:55 | 25.36057 | 56.00156 | 19480 ft | 412 kts | 103° |
| 2026-04-25 02:56 | 25.35396 | 56.03240 | 19859 ft | 414 kts | 104° |
| 2026-04-25 02:56 | 25.35010 | 56.05037 | 20088 ft | 416 kts | 104° |
| 2026-04-25 02:57 | 25.34596 | 56.06965 | 20321 ft | 418 kts | 104° |
| 2026-04-25 02:57 | 25.33922 | 56.10100 | 20694 ft | 421 kts | 104° |
| 2026-04-25 02:57 | 25.33239 | 56.13270 | 21052 ft | 424 kts | 104° |
| 2026-04-25 02:58 | 25.32679 | 56.16442 | 21422 ft | 427 kts | 97° |
| 2026-04-25 02:58 | 25.32412 | 56.19723 | 21783 ft | 430 kts | 95° |
| 2026-04-25 02:58 | 25.32151 | 56.23020 | 22154 ft | 432 kts | 95° |
| 2026-04-25 02:58 | 25.31877 | 56.26349 | 22521 ft | 435 kts | 96° |
| 2026-04-25 02:59 | 25.31597 | 56.29700 | 22901 ft | 437 kts | 96° |
| 2026-04-25 02:59 | 25.31314 | 56.33062 | 23259 ft | 440 kts | 96° |
| 2026-04-25 02:59 | 25.31030 | 56.36441 | 23576 ft | 443 kts | 96° |
| 2026-04-25 02:59 | 25.30758 | 56.39848 | 23890 ft | 445 kts | 94° |
| 2026-04-25 03:00 | 25.30659 | 56.43235 | 24178 ft | 448 kts | 92° |
| 2026-04-25 03:00 | 25.30564 | 56.46730 | 24490 ft | 450 kts | 92° |
| 2026-04-25 03:00 | 25.30464 | 56.50166 | 24797 ft | 453 kts | 92° |
| 2026-04-25 03:00 | 25.30360 | 56.53653 | 25095 ft | 455 kts | 92° |
| 2026-04-25 03:01 | 25.30190 | 56.57154 | 25386 ft | 457 kts | 97° |
| 2026-04-25 03:01 | 25.29634 | 56.60621 | 25706 ft | 458 kts | 105° |
| 2026-04-25 03:01 | 25.28674 | 56.63979 | 26036 ft | 459 kts | 113° |
| 2026-04-25 03:01 | 25.27425 | 56.67238 | 26367 ft | 462 kts | 115° |
| 2026-04-25 03:02 | 25.26174 | 56.70513 | 26721 ft | 464 kts | 114° |
| 2026-04-25 03:02 | 25.24924 | 56.73818 | 27096 ft | 467 kts | 114° |